Time;durP1;ratioP1;P1;durP2;ratioP2;P2;SDS_P1;SDS_P2;PMS_P1;PMS_P2;Temp;Humidity;BMP_temperature;BMP_pressure;BME280_temperature;BME280_humidity;BME280_pressure;Samples;Min_cycle;Max_cycle;Signal;HPM_P1;HPM_P2
2022/07/06 00:01:37;;;;;;;12.60;6.78;;;19.60;99.90;;;;;;5072196;28;20516;-74
2022/07/06 00:04:03;;;;;;;14.15;6.40;;;19.60;99.90;;;;;;5072324;28;20039;-70
2022/07/06 00:06:29;;;;;;;12.55;6.05;;;19.60;99.90;;;;;;5071702;28;20025;-71
2022/07/06 00:08:55;;;;;;;10.63;6.65;;;19.50;99.90;;;;;;5072762;28;20035;-68
2022/07/06 00:11:21;;;;;;;12.80;7.10;;;19.50;99.90;;;;;;5071874;28;20406;-70
2022/07/06 00:13:47;;;;;;;13.52;6.20;;;19.50;99.90;;;;;;5071770;28;20040;-67
2022/07/06 00:16:13;;;;;;;14.93;7.35;;;19.40;99.90;;;;;;5071333;28;20044;-71
2022/07/06 00:18:39;;;;;;;12.80;6.75;;;19.40;99.90;;;;;;5071802;28;20021;-69
2022/07/06 00:21:05;;;;;;;11.50;6.65;;;19.40;99.90;;;;;;5072470;28;20017;-70
2022/07/06 00:23:31;;;;;;;12.20;6.72;;;19.40;99.90;;;;;;5073193;28;20355;-68
2022/07/06 00:25:57;;;;;;;12.02;6.40;;;19.40;99.90;;;;;;5072687;28;20016;-69
2022/07/06 00:28:23;;;;;;;13.80;6.70;;;19.40;99.90;;;;;;5072377;28;20111;-70
2022/07/06 00:30:49;;;;;;;12.80;6.78;;;19.30;99.90;;;;;;5071832;28;20021;-70
2022/07/06 00:33:15;;;;;;;11.32;7.72;;;19.40;99.90;;;;;;5070723;28;20119;-67
2022/07/06 00:35:41;;;;;;;12.77;7.05;;;19.40;99.90;;;;;;5071743;28;20020;-66
2022/07/06 00:38:07;;;;;;;14.40;7.53;;;19.40;99.90;;;;;;5071006;28;20112;-68
2022/07/06 00:40:33;;;;;;;12.27;6.55;;;19.30;99.90;;;;;;5070738;28;20048;-66
2022/07/06 00:42:59;;;;;;;11.95;6.70;;;19.30;99.90;;;;;;5072051;28;20025;-71
2022/07/06 00:45:25;;;;;;;11.98;7.18;;;19.40;99.90;;;;;;5058155;28;20485;-70
2022/07/06 00:47:51;;;;;;;11.90;6.82;;;19.30;99.90;;;;;;5071032;28;20028;-68
2022/07/06 00:50:20;;;;;;;13.13;6.68;;;19.30;99.90;;;;;;5072194;28;20475;-66
2022/07/06 00:53:06;;;;;;;13.15;7.57;;;19.40;99.90;;;;;;5071908;28;20523;-65
2022/07/06 00:55:34;;;;;;;15.38;7.50;;;19.30;99.90;;;;;;5072027;28;20020;-70
2022/07/06 00:58:04;;;;;;;12.20;7.60;;;19.30;99.90;;;;;;5068719;28;20077;-71
2022/07/06 01:00:31;;;;;;;13.57;7.47;;;19.30;99.90;;;;;;5071913;28;20123;-71
2022/07/06 01:02:57;;;;;;;16.40;6.57;;;19.30;99.90;;;;;;5070325;28;20024;-69
2022/07/06 01:05:23;;;;;;;11.32;6.95;;;19.30;99.90;;;;;;5070313;28;20066;-71
2022/07/06 01:07:50;;;;;;;11.70;6.68;;;19.30;99.90;;;;;;5071957;28;20028;-67
2022/07/06 01:10:18;;;;;;;10.85;6.80;;;19.30;99.90;;;;;;5070054;28;20415;-68
2022/07/06 01:12:47;;;;;;;11.88;6.50;;;19.30;99.90;;;;;;5071708;28;20490;-71
2022/07/06 01:15:19;;;;;;;11.30;6.47;;;19.30;99.90;;;;;;5071384;28;20489;-71
2022/07/06 01:17:46;;;;;;;13.57;6.40;;;19.20;99.90;;;;;;5071444;28;20027;-71
2022/07/06 01:20:17;;;;;;;10.48;6.13;;;19.20;99.90;;;;;;5071236;28;20028;-68
2022/07/06 01:22:44;;;;;;;14.80;6.00;;;19.20;99.90;;;;;;5071818;28;20405;-70
2022/07/06 01:25:11;;;;;;;10.48;6.60;;;19.20;99.90;;;;;;5070140;28;20115;-69
2022/07/06 01:27:39;;;;;;;8.73;6.13;;;19.20;99.90;;;;;;5070878;28;20367;-71
2022/07/06 01:30:10;;;;;;;10.60;6.25;;;19.20;99.90;;;;;;5071592;28;20025;-71
2022/07/06 01:32:37;;;;;;;16.02;6.45;;;19.10;99.90;;;;;;5071323;28;20031;-71
2022/07/06 01:35:07;;;;;;;10.05;6.18;;;19.10;99.90;;;;;;5071542;28;20031;-72
2022/07/06 01:37:33;;;;;;;18.00;6.90;;;19.10;99.90;;;;;;5069893;28;20032;-69
2022/07/06 01:40:03;;;;;;;12.60;6.38;;;19.10;99.90;;;;;;5070674;28;20024;-71
2022/07/06 01:42:29;;;;;;;10.40;6.20;;;19.00;99.90;;;;;;5069691;28;20025;-71
2022/07/06 01:44:55;;;;;;;12.45;6.50;;;19.00;99.90;;;;;;5069887;28;20039;-71
2022/07/06 01:47:22;;;;;;;14.88;6.22;;;19.00;99.90;;;;;;5068409;28;20038;-72
2022/07/06 01:49:50;;;;;;;10.85;6.10;;;19.00;99.90;;;;;;5069729;28;20074;-71
2022/07/06 01:52:16;;;;;;;11.93;6.20;;;19.00;99.90;;;;;;5069461;28;20115;-70
2022/07/06 01:54:42;;;;;;;10.50;6.30;;;19.00;99.90;;;;;;5069397;28;20161;-71
2022/07/06 01:57:07;;;;;;;12.13;6.10;;;19.00;99.90;;;;;;5071171;28;20094;-71
2022/07/06 01:59:33;;;;;;;10.48;5.90;;;19.00;99.90;;;;;;5069728;28;20070;-70
2022/07/06 02:01:59;;;;;;;12.35;5.68;;;19.10;99.90;;;;;;5070641;28;20066;-68
2022/07/06 02:04:25;;;;;;;10.15;5.70;;;19.00;99.90;;;;;;5071673;28;20020;-71
2022/07/06 02:06:51;;;;;;;9.88;6.15;;;19.10;99.90;;;;;;5069694;28;20071;-68
2022/07/06 02:09:18;;;;;;;9.98;5.85;;;19.00;99.90;;;;;;5069614;28;20021;-71
2022/07/06 02:11:44;;;;;;;12.00;5.90;;;19.10;99.90;;;;;;5068982;28;20102;-65
2022/07/06 02:14:10;;;;;;;13.10;5.40;;;19.00;99.90;;;;;;5069383;28;20040;-72
2022/07/06 02:16:39;;;;;;;9.88;6.20;;;19.00;99.90;;;;;;5069287;28;20024;-71
2022/07/06 02:19:05;;;;;;;10.93;5.80;;;19.00;99.90;;;;;;5070678;28;20021;-72
2022/07/06 02:21:30;;;;;;;9.43;5.75;;;19.00;99.90;;;;;;5070773;28;20446;-71
2022/07/06 02:23:56;;;;;;;9.88;6.47;;;19.00;99.90;;;;;;5068825;28;20028;-69
2022/07/06 02:26:22;;;;;;;15.52;6.35;;;19.00;99.90;;;;;;5068514;28;20030;-71
2022/07/06 02:28:49;;;;;;;9.50;6.15;;;19.00;99.90;;;;;;5069855;28;20408;-67
2022/07/06 02:31:15;;;;;;;11.88;5.93;;;19.00;99.90;;;;;;5068863;28;20124;-72
2022/07/06 02:33:43;;;;;;;10.27;5.57;;;18.90;99.90;;;;;;5068150;28;20066;-67
2022/07/06 02:36:11;;;;;;;12.15;5.93;;;19.00;99.90;;;;;;5068924;28;20475;-64
2022/07/06 02:38:37;;;;;;;9.85;6.22;;;18.90;99.90;;;;;;5069433;28;20032;-65
2022/07/06 02:41:03;;;;;;;11.77;5.88;;;18.90;99.90;;;;;;5069506;28;20029;-71
2022/07/06 02:43:29;;;;;;;11.18;5.45;;;18.90;99.90;;;;;;5068502;28;20395;-72
2022/07/06 02:45:55;;;;;;;12.48;5.85;;;18.80;99.90;;;;;;5068841;28;20029;-65
2022/07/06 02:48:21;;;;;;;9.13;5.10;;;18.80;99.90;;;;;;5069076;28;20032;-72
2022/07/06 02:50:49;;;;;;;16.42;6.22;;;18.80;99.90;;;;;;5069266;28;20119;-71
2022/07/06 02:53:18;;;;;;;11.95;6.20;;;18.80;99.90;;;;;;5069110;28;20207;-70
2022/07/06 02:55:45;;;;;;;9.50;4.95;;;18.80;99.90;;;;;;5068891;28;20040;-71
2022/07/06 02:58:11;;;;;;;9.13;5.10;;;18.80;99.90;;;;;;5068735;28;20025;-71
2022/07/06 03:00:37;;;;;;;12.18;5.47;;;18.80;99.90;;;;;;5071901;28;20062;-71
2022/07/06 03:03:03;;;;;;;9.55;5.70;;;18.80;99.90;;;;;;5072610;28;20028;-71
2022/07/06 03:05:30;;;;;;;7.90;4.63;;;18.90;99.90;;;;;;5072398;28;20031;-71
2022/07/06 03:07:55;;;;;;;11.43;5.28;;;18.90;99.90;;;;;;5072759;28;20020;-68
2022/07/06 03:10:21;;;;;;;13.45;5.57;;;18.90;99.90;;;;;;5073410;28;20041;-71
2022/07/06 03:12:47;;;;;;;7.45;5.38;;;18.90;99.90;;;;;;5073679;28;20025;-71
2022/07/06 03:15:13;;;;;;;9.63;5.53;;;18.90;99.90;;;;;;5072228;28;20648;-66
2022/07/06 03:17:42;;;;;;;15.30;5.88;;;18.90;99.90;;;;;;5072524;28;20434;-71
2022/07/06 03:20:08;;;;;;;7.93;5.22;;;18.90;99.90;;;;;;5072297;28;20032;-68
2022/07/06 03:22:35;;;;;;;8.80;5.38;;;18.90;99.90;;;;;;5071731;28;20027;-66
2022/07/06 03:25:02;;;;;;;8.32;5.20;;;18.90;99.90;;;;;;5071704;28;20062;-68
2022/07/06 03:27:29;;;;;;;9.93;5.75;;;18.90;99.90;;;;;;5072168;28;20031;-71
2022/07/06 03:29:55;;;;;;;12.38;6.32;;;18.90;99.90;;;;;;5072481;28;20538;-69
2022/07/06 03:32:21;;;;;;;9.32;5.38;;;18.90;99.90;;;;;;5071564;28;20073;-71
2022/07/06 03:34:48;;;;;;;7.15;4.60;;;18.90;99.90;;;;;;5071943;28;20028;-72
2022/07/06 03:37:14;;;;;;;9.82;6.03;;;19.00;99.90;;;;;;5105906;28;20067;-68
2022/07/06 03:39:41;;;;;;;7.45;4.80;;;18.90;99.90;;;;;;5072404;28;20452;-70
2022/07/06 03:42:08;;;;;;;7.15;4.53;;;19.00;99.90;;;;;;5071744;28;20028;-71
2022/07/06 03:44:37;;;;;;;12.20;6.15;;;19.00;99.90;;;;;;5072077;28;20059;-72
2022/07/06 03:47:03;;;;;;;10.25;6.05;;;19.00;99.90;;;;;;5071762;28;20467;-70
2022/07/06 03:49:29;;;;;;;11.32;4.70;;;20.10;99.90;;;;;;5071878;28;20403;-70
2022/07/06 03:51:58;;;;;;;6.90;4.45;;;21.00;99.90;;;;;;5071518;28;20115;-71
2022/07/06 03:54:25;;;;;;;7.40;4.70;;;21.40;99.90;;;;;;5061577;28;20040;-69
2022/07/06 03:56:55;;;;;;;6.70;4.28;;;22.20;99.90;;;;;;5069797;28;20024;-67
2022/07/06 03:59:21;;;;;;;8.43;4.10;;;22.70;99.90;;;;;;5071806;28;20474;-70
2022/07/06 04:01:47;;;;;;;9.13;4.43;;;23.50;99.90;;;;;;5069697;28;20240;-69
2022/07/06 04:04:16;;;;;;;10.98;4.80;;;23.70;99.90;;;;;;5063542;28;20029;-71
2022/07/06 04:06:44;;;;;;;9.45;3.85;;;24.20;99.90;;;;;;5067519;28;20034;-71
2022/07/06 04:09:10;;;;;;;6.65;4.07;;;24.70;99.90;;;;;;5068930;28;20030;-69
2022/07/06 04:11:37;;;;;;;4.15;3.40;;;25.20;99.90;;;;;;5067868;28;20044;-68
2022/07/06 04:14:03;;;;;;;6.20;3.75;;;25.60;99.90;;;;;;5071763;28;20039;-71
2022/07/06 04:16:29;;;;;;;5.53;3.50;;;25.40;99.90;;;;;;5071996;28;20104;-71
2022/07/06 04:18:56;;;;;;;4.78;3.85;;;;;;;;;;5070902;28;20029;-71
2022/07/06 04:21:22;;;;;;;6.57;3.42;;;26.10;99.90;;;;;;5071679;28;20025;-71
2022/07/06 04:23:48;;;;;;;10.50;3.88;;;26.80;99.90;;;;;;5071235;28;20384;-70
2022/07/06 04:26:15;;;;;;;6.22;3.70;;;26.80;99.90;;;;;;5071169;28;20025;-66
2022/07/06 04:28:41;;;;;;;6.53;4.35;;;26.50;99.90;;;;;;5070204;28;20047;-70
2022/07/06 04:31:07;;;;;;;7.78;3.92;;;25.90;99.90;;;;;;5072008;28;20419;-71
2022/07/06 04:33:34;;;;;;;4.85;3.95;;;26.40;99.90;;;;;;5070830;28;20032;-71
2022/07/06 04:36:00;;;;;;;5.75;3.97;;;26.40;99.90;;;;;;5071311;28;20391;-69
2022/07/06 04:38:34;;;;;;;5.75;4.32;;;26.40;99.90;;;;;;5071116;28;20032;-70
2022/07/06 04:41:05;;;;;;;5.60;4.03;;;26.50;99.90;;;;;;5064918;28;20028;-69
2022/07/06 04:43:31;;;;;;;10.50;4.30;;;26.60;99.90;;;;;;5066622;28;20028;-67
2022/07/06 04:45:58;;;;;;;7.10;4.45;;;26.50;99.90;;;;;;5104553;28;20024;-70
2022/07/06 04:48:24;;;;;;;7.22;4.40;;;26.50;99.90;;;;;;5070014;28;20024;-70
2022/07/06 04:50:50;;;;;;;7.97;4.20;;;26.60;99.90;;;;;;5070785;28;20051;-71
2022/07/06 04:53:21;;;;;;;7.32;4.30;;;26.40;99.90;;;;;;5070131;28;20040;-69
2022/07/06 04:55:48;;;;;;;8.65;3.95;;;26.40;99.90;;;;;;5070190;28;20026;-71
2022/07/06 04:58:15;;;;;;;5.95;4.15;;;26.60;99.90;;;;;;5104259;28;20066;-70
2022/07/06 05:00:41;;;;;;;10.63;4.22;;;26.60;99.90;;;;;;5072175;28;20024;-71
2022/07/06 05:03:07;;;;;;;7.38;4.78;;;25.10;99.90;;;;;;5070423;28;20032;-70
2022/07/06 05:05:34;;;;;;;5.97;4.40;;;24.60;99.90;;;;;;5070078;28;20063;-65
2022/07/06 05:08:00;;;;;;;9.45;4.65;;;24.00;99.90;;;;;;5070442;28;20021;-69
2022/07/06 05:10:26;;;;;;;8.35;4.60;;;23.60;99.90;;;;;;5069799;28;20084;-69
2022/07/06 05:12:55;;;;;;;9.57;4.85;;;23.30;99.90;;;;;;5069932;28;20110;-66
2022/07/06 05:15:22;;;;;;;8.82;4.57;;;23.20;99.90;;;;;;5070150;28;20119;-69
2022/07/06 05:17:48;;;;;;;7.72;4.63;;;23.20;99.90;;;;;;5070037;28;20039;-69
2022/07/06 05:20:15;;;;;;;6.28;4.20;;;23.20;99.90;;;;;;5070169;28;20033;-70
2022/07/06 05:22:43;;;;;;;9.65;4.82;;;23.40;99.90;;;;;;5070082;28;20382;-70
2022/07/06 05:25:09;;;;;;;9.30;4.10;;;23.50;99.90;;;;;;5071871;28;20522;-67
2022/07/06 05:27:35;;;;;;;8.25;4.32;;;23.40;99.90;;;;;;5071235;28;20158;-68
2022/07/06 05:30:02;;;;;;;9.98;4.03;;;23.30;99.90;;;;;;5070664;28;20051;-66
2022/07/06 05:32:29;;;;;;;6.18;4.15;;;23.40;99.90;;;;;;5070090;28;20020;-69
2022/07/06 05:34:55;;;;;;;7.35;5.07;;;23.50;99.90;;;;;;5070242;28;20387;-72
2022/07/06 05:37:21;;;;;;;8.07;4.35;;;23.30;99.90;;;;;;5069676;28;20119;-70
2022/07/06 05:39:49;;;;;;;8.05;4.35;;;23.00;99.90;;;;;;5055416;28;20037;-71
2022/07/06 05:42:15;;;;;;;7.95;4.35;;;22.90;99.90;;;;;;5069722;28;20078;-71
2022/07/06 05:44:42;;;;;;;8.77;4.22;;;22.90;99.90;;;;;;5068853;28;20043;-69
2022/07/06 05:52:43;;;;;;;5.13;3.80;;;23.30;99.90;;;;;;5087656;28;20474;-70
2022/07/06 05:55:10;;;;;;;5.80;3.90;;;23.20;99.90;;;;;;5077136;28;20041;-71
2022/07/06 05:57:37;;;;;;;8.75;4.07;;;23.30;99.90;;;;;;5069542;28;20058;-72
2022/07/06 06:00:05;;;;;;;10.48;4.38;;;23.20;99.90;;;;;;5065336;28;20024;-70
2022/07/06 06:02:42;;;;;;;6.63;3.67;;;23.30;99.90;;;;;;5067304;28;20024;-70
2022/07/06 06:05:14;;;;;;;6.15;3.90;;;23.30;99.90;;;;;;5069640;28;20024;-71
2022/07/06 06:07:41;;;;;;;5.95;4.05;;;23.40;99.90;;;;;;5069400;28;20040;-70
2022/07/06 06:10:11;;;;;;;7.00;4.63;;;23.30;99.90;;;;;;5068758;28;20028;-65
2022/07/06 06:12:38;;;;;;;5.25;3.30;;;23.20;99.90;;;;;;5069353;28;20048;-71
2022/07/06 06:15:05;;;;;;;4.75;3.58;;;23.20;99.90;;;;;;5051839;28;20028;-70
2022/07/06 06:17:32;;;;;;;7.82;3.97;;;23.30;99.90;;;;;;5070499;28;20025;-69
2022/07/06 06:19:58;;;;;;;6.35;3.67;;;23.20;99.90;;;;;;5068239;28;20033;-68
2022/07/06 06:22:25;;;;;;;4.28;3.20;;;23.30;99.90;;;;;;5068908;28;20024;-68
2022/07/06 06:24:51;;;;;;;5.25;3.70;;;23.50;99.90;;;;;;5070213;28;20494;-68
2022/07/06 06:27:17;;;;;;;8.98;3.42;;;23.80;99.90;;;;;;5069901;28;20044;-70
2022/07/06 06:29:44;;;;;;;4.20;3.28;;;23.90;99.90;;;;;;5070442;28;20016;-71
2022/07/06 06:32:13;;;;;;;4.55;3.60;;;24.00;99.90;;;;;;5069911;28;20046;-70
2022/07/06 06:34:40;;;;;;;5.70;3.05;;;23.80;99.90;;;;;;5072900;28;20127;-67
2022/07/06 06:37:06;;;;;;;5.47;3.45;;;23.70;99.90;;;;;;5072579;28;20024;-68
2022/07/06 06:39:33;;;;;;;3.90;2.92;;;23.90;99.90;;;;;;5072934;28;20471;-70
2022/07/06 06:41:58;;;;;;;12.27;3.83;;;23.90;99.90;;;;;;5073634;28;20028;-70
2022/07/06 06:44:30;;;;;;;7.45;3.53;;;24.10;99.90;;;;;;5072495;28;20033;-69
2022/07/06 06:46:56;;;;;;;5.10;3.03;;;24.20;99.90;;;;;;5074082;28;20025;-70
2022/07/06 06:49:22;;;;;;;5.40;3.25;;;24.30;99.90;;;;;;5073907;28;20136;-69
2022/07/06 06:51:47;;;;;;;3.97;2.97;;;24.10;99.90;;;;;;5074522;28;20028;-68
2022/07/06 06:54:13;;;;;;;6.03;3.38;;;24.20;99.90;;;;;;5074060;28;20086;-69
2022/07/06 06:56:39;;;;;;;3.78;2.95;;;24.00;99.90;;;;;;5073679;28;20021;-68
2022/07/06 06:59:05;;;;;;;5.97;3.33;;;23.90;99.90;;;;;;5073955;28;20021;-68
2022/07/06 07:01:32;;;;;;;5.72;2.85;;;24.00;99.90;;;;;;5073848;28;20033;-69
2022/07/06 07:03:58;;;;;;;3.60;2.67;;;24.00;99.90;;;;;;5073465;28;20020;-64
2022/07/06 07:06:24;;;;;;;4.15;3.03;;;24.20;99.90;;;;;;5072580;28;20533;-71
2022/07/06 07:08:50;;;;;;;3.17;2.88;;;23.90;99.90;;;;;;5073599;28;20035;-71
2022/07/06 07:11:16;;;;;;;4.35;2.85;;;24.00;99.90;;;;;;5073089;28;20044;-70
2022/07/06 07:13:42;;;;;;;7.10;3.10;;;;;;;;;;5073357;28;20474;-70
2022/07/06 07:16:08;;;;;;;7.97;3.60;;;24.60;99.90;;;;;;5073146;28;20024;-71
2022/07/06 07:18:34;;;;;;;3.70;2.90;;;24.60;99.90;;;;;;5072408;28;20035;-70
2022/07/06 07:21:00;;;;;;;3.53;2.35;;;24.50;99.90;;;;;;5072445;28;20051;-67
2022/07/06 07:23:26;;;;;;;6.13;3.00;;;24.50;99.90;;;;;;5073557;28;20090;-70
2022/07/06 07:25:52;;;;;;;3.08;2.40;;;24.50;99.90;;;;;;5073006;28;20097;-70
2022/07/06 07:28:18;;;;;;;3.00;2.47;;;24.60;99.90;;;;;;5072725;28;20482;-70
2022/07/06 07:30:44;;;;;;;8.80;2.97;;;24.80;99.90;;;;;;5073249;28;20020;-71
2022/07/06 07:33:10;;;;;;;3.78;2.70;;;24.60;99.90;;;;;;5073243;28;20036;-70
2022/07/06 07:35:35;;;;;;;2.85;2.40;;;24.80;99.90;;;;;;5072713;28;20028;-68
2022/07/06 07:38:01;;;;;;;3.78;2.58;;;25.10;99.90;;;;;;5073390;28;20047;-69
2022/07/06 07:40:27;;;;;;;3.13;2.50;;;25.00;99.90;;;;;;5073135;28;20032;-67
2022/07/06 07:42:53;;;;;;;3.05;2.60;;;24.90;99.90;;;;;;5073432;28;20524;-69
2022/07/06 07:45:19;;;;;;;3.95;2.72;;;25.40;99.90;;;;;;5071452;28;20131;-70
2022/07/06 07:47:45;;;;;;;3.95;2.95;;;25.40;99.90;;;;;;5073255;28;20040;-71
2022/07/06 07:50:11;;;;;;;4.57;2.60;;;25.40;99.90;;;;;;5073360;28;20036;-67
2022/07/06 07:52:36;;;;;;;2.85;2.30;;;25.20;99.90;;;;;;5072240;28;20024;-71
2022/07/06 07:55:03;;;;;;;3.58;2.58;;;25.30;99.90;;;;;;5073099;28;20040;-71
2022/07/06 07:57:29;;;;;;;3.58;2.70;;;25.30;99.90;;;;;;5073056;28;20028;-69
2022/07/06 07:59:54;;;;;;;3.58;2.40;;;25.20;99.90;;;;;;5071992;28;20054;-70
2022/07/06 08:02:20;;;;;;;5.97;2.50;;;25.50;99.90;;;;;;5071983;28;20016;-71
2022/07/06 08:04:46;;;;;;;5.50;2.60;;;25.50;99.40;;;;;;5072371;28;20064;-70
2022/07/06 08:07:12;;;;;;;3.67;2.63;;;25.60;99.90;;;;;;5072665;28;20039;-70
2022/07/06 08:09:37;;;;;;;5.00;3.65;;;25.80;99.90;;;;;;5072662;28;20029;-71
2022/07/06 08:12:03;;;;;;;4.45;2.58;;;25.30;99.90;;;;;;5072327;28;20099;-70
2022/07/06 08:14:29;;;;;;;2.78;2.33;;;25.20;99.90;;;;;;5070208;28;20028;-70
2022/07/06 08:16:55;;;;;;;2.58;2.33;;;25.60;99.60;;;;;;5071140;28;20387;-69
2022/07/06 08:19:21;;;;;;;4.15;2.40;;;25.80;99.90;;;;;;5069496;28;20071;-70
2022/07/06 08:21:47;;;;;;;3.28;2.47;;;25.90;99.90;;;;;;5071870;28;20063;-71
2022/07/06 08:24:13;;;;;;;3.28;2.35;;;26.00;99.90;;;;;;5072345;28;20470;-70
2022/07/06 08:26:39;;;;;;;5.00;2.80;;;26.00;97.70;;;;;;5071760;28;20028;-70
2022/07/06 08:29:05;;;;;;;6.28;2.80;;;25.70;98.70;;;;;;5070749;28;20028;-70
2022/07/06 08:31:31;;;;;;;3.17;2.38;;;25.90;97.50;;;;;;5071993;28;20190;-71
2022/07/06 08:33:57;;;;;;;5.10;2.50;;;26.20;99.90;;;;;;5072146;28;20368;-69
2022/07/06 08:36:26;;;;;;;3.83;2.85;;;26.40;97.50;;;;;;5072087;28;20024;-71
2022/07/06 08:38:52;;;;;;;3.53;2.30;;;26.20;94.10;;;;;;5068280;28;20020;-71
2022/07/06 08:41:23;;;;;;;7.20;2.58;;;26.20;92.80;;;;;;5071658;28;20039;-71
2022/07/06 08:43:50;;;;;;;4.88;2.45;;;26.20;96.00;;;;;;5071364;28;20035;-74
2022/07/06 08:46:16;;;;;;;3.00;2.30;;;26.30;93.20;;;;;;5072291;28;20376;-72
2022/07/06 08:48:43;;;;;;;4.88;2.50;;;26.10;91.90;;;;;;5071689;28;20056;-72
2022/07/06 08:51:12;;;;;;;4.72;2.53;;;26.20;94.70;;;;;;5070054;28;20029;-72
2022/07/06 08:53:39;;;;;;;4.90;2.40;;;26.10;95.40;;;;;;5071485;28;20039;-66
2022/07/06 08:56:04;;;;;;;3.50;2.65;;;26.20;94.00;;;;;;5071158;28;20029;-72
2022/07/06 08:58:31;;;;;;;3.63;2.65;;;25.80;94.30;;;;;;5071637;28;20020;-67
2022/07/06 09:00:57;;;;;;;5.13;2.85;;;25.80;96.70;;;;;;5071859;28;20039;-69
2022/07/06 09:03:24;;;;;;;3.22;2.20;;;25.80;95.20;;;;;;5071616;28;20032;-64
2022/07/06 09:05:51;;;;;;;5.80;2.72;;;25.60;94.20;;;;;;5072031;28;20016;-73
2022/07/06 09:08:20;;;;;;;5.63;1.90;;;25.60;97.20;;;;;;5071241;28;20029;-72
2022/07/06 09:10:46;;;;;;;2.75;2.38;;;26.00;99.40;;;;;;5071215;28;20088;-72
2022/07/06 09:13:11;;;;;;;2.40;2.20;;;26.70;98.50;;;;;;5071440;28;20036;-72
2022/07/06 09:15:40;;;;;;;2.63;2.00;;;26.70;95.70;;;;;;5071666;28;20112;-72
2022/07/06 09:18:07;;;;;;;2.80;2.15;;;26.60;92.60;;;;;;5070430;28;20024;-72
2022/07/06 09:20:34;;;;;;;3.47;1.98;;;26.80;92.70;;;;;;5071522;28;20553;-71
2022/07/06 09:23:04;;;;;;;3.70;2.38;;;26.70;95.00;;;;;;5071238;28;20066;-72
2022/07/06 09:25:31;;;;;;;3.72;2.17;;;26.90;95.40;;;;;;5070447;28;20032;-72
2022/07/06 09:27:58;;;;;;;3.58;2.20;;;26.90;90.40;;;;;;5065117;28;20090;-73
2022/07/06 09:30:26;;;;;;;3.17;2.30;;;26.50;92.90;;;;;;5051464;28;20397;-71
2022/07/06 09:32:54;;;;;;;2.70;2.20;;;26.50;94.00;;;;;;5052056;28;20467;-71
2022/07/06 09:35:25;;;;;;;3.92;2.55;;;26.60;94.30;;;;;;5051026;28;20025;-72
2022/07/06 09:38:02;;;;;;;2.30;1.93;;;26.90;93.60;;;;;;5050654;28;20089;-72
2022/07/06 09:40:31;;;;;;;2.50;2.30;;;26.80;93.30;;;;;;5058286;28;20059;-73
2022/07/06 09:43:18;;;;;;;3.38;2.47;;;26.90;91.20;;;;;;5070925;28;20017;-72
2022/07/06 09:45:50;;;;;;;3.33;2.30;;;27.00;91.70;;;;;;5059286;28;20157;-72
2022/07/06 09:48:21;;;;;;;10.45;2.58;;;27.30;91.60;;;;;;5070479;28;20055;-72
2022/07/06 09:50:58;;;;;;;2.45;2.25;;;27.60;95.10;;;;;;5070383;28;20029;-71
2022/07/06 09:53:25;;;;;;;4.13;2.13;;;27.50;91.50;;;;;;5068595;28;20032;-73
2022/07/06 09:55:54;;;;;;;3.83;2.22;;;27.80;91.30;;;;;;5070504;28;20039;-71
2022/07/06 09:58:20;;;;;;;2.58;2.30;;;27.60;89.90;;;;;;5068487;28;20029;-73
2022/07/06 10:00:47;;;;;;;2.53;2.10;;;27.50;90.50;;;;;;5069623;28;20465;-72
2022/07/06 10:03:15;;;;;;;10.20;2.25;;;27.50;88.60;;;;;;5070621;28;20115;-72
2022/07/06 10:05:43;;;;;;;1.92;1.77;;;26.90;87.00;;;;;;5070211;28;20020;-72
2022/07/06 10:08:09;;;;;;;1.77;1.67;;;27.30;87.50;;;;;;5067983;28;20056;-72
2022/07/06 10:10:37;;;;;;;4.95;2.50;;;27.40;90.10;;;;;;5069660;28;20043;-71
2022/07/06 10:13:07;;;;;;;2.30;2.10;;;27.50;86.60;;;;;;5070874;28;20120;-68
2022/07/06 10:15:38;;;;;;;2.30;2.10;;;27.50;87.00;;;;;;5070785;28;20048;-69
2022/07/06 10:18:07;;;;;;;2.85;1.80;;;27.50;87.20;;;;;;5066116;28;20443;-70
2022/07/06 10:20:38;;;;;;;1.85;1.63;;;27.70;87.50;;;;;;5068133;28;20482;-71
2022/07/06 10:23:07;;;;;;;2.58;2.13;;;27.70;86.70;;;;;;5062171;28;20401;-71
2022/07/06 10:25:34;;;;;;;3.08;2.05;;;27.80;90.30;;;;;;5063755;28;20024;-69
2022/07/06 10:28:01;;;;;;;7.05;2.47;;;27.90;87.90;;;;;;5069505;28;20032;-72
2022/07/06 10:30:28;;;;;;;4.70;2.30;;;27.90;85.10;;;;;;5068473;28;20031;-69
2022/07/06 10:32:58;;;;;;;3.58;2.00;;;27.80;85.30;;;;;;5069354;28;20027;-72
2022/07/06 10:35:24;;;;;;;3.30;2.20;;;27.90;85.90;;;;;;5067311;28;20039;-71
2022/07/06 10:38:06;;;;;;;2.35;1.98;;;27.80;90.00;;;;;;5069242;28;20017;-73
2022/07/06 10:43:19;;;;;;;3.75;2.17;;;27.70;84.90;;;;;;5069803;28;20067;-71
2022/07/06 10:45:45;;;;;;;3.50;1.95;;;27.60;85.70;;;;;;5070041;28;20104;-76
2022/07/06 10:48:10;;;;;;;2.55;1.83;;;27.80;84.20;;;;;;5068686;28;20478;-75
2022/07/06 10:50:38;;;;;;;2.85;1.92;;;28.00;90.60;;;;;;5069346;28;20032;-71
2022/07/06 10:53:10;;;;;;;2.03;1.83;;;27.90;88.40;;;;;;5070263;28;20102;-73
2022/07/06 10:55:38;;;;;;;2.67;2.25;;;27.50;88.70;;;;;;5070147;28;20048;-71
2022/07/06 10:58:04;;;;;;;3.70;2.47;;;27.70;90.60;;;;;;5070212;28;20617;-66
2022/07/06 11:00:54;;;;;;;4.22;2.33;;;27.80;92.00;;;;;;5070121;28;20051;-73
2022/07/06 11:03:44;;;;;;;3.58;2.10;;;28.20;92.70;;;;;;5070498;28;20029;-73
2022/07/06 11:06:17;;;;;;;3.08;2.05;;;27.90;91.50;;;;;;5058318;28;20150;-74
2022/07/06 11:08:47;;;;;;;3.88;2.22;;;28.00;95.60;;;;;;5071035;28;20107;-75
2022/07/06 11:11:25;;;;;;;2.53;2.10;;;28.10;91.80;;;;;;5069147;28;20052;-75
2022/07/06 11:14:01;;;;;;;3.38;2.40;;;28.10;91.70;;;;;;5069493;28;20623;-73
2022/07/06 11:16:33;;;;;;;3.20;2.13;;;27.80;91.70;;;;;;5070749;28;20024;-74
2022/07/06 11:19:09;;;;;;;3.00;2.05;;;27.80;92.10;;;;;;5071022;28;20429;-75
2022/07/06 11:21:41;;;;;;;2.53;2.20;;;28.00;90.40;;;;;;5074473;28;20142;-71
2022/07/06 11:24:12;;;;;;;;;;;27.80;89.00;;;;;;5074880;28;20056;-76
2022/07/06 11:26:39;;;;;;;1.90;1.73;;;28.10;91.30;;;;;;5074079;28;19912;-74
2022/07/06 11:29:07;;;;;;;4.82;2.10;;;28.10;91.20;;;;;;5074301;28;20024;-72
2022/07/06 11:31:36;;;;;;;2.50;1.88;;;28.10;91.30;;;;;;5074516;28;20036;-69
2022/07/06 11:34:04;;;;;;;3.28;2.10;;;28.40;92.30;;;;;;5074105;28;20130;-76
2022/07/06 11:36:30;;;;;;;5.82;2.15;;;28.40;90.90;;;;;;5074607;28;20056;-74
2022/07/06 11:38:55;;;;;;;3.30;2.08;;;28.60;92.10;;;;;;5073987;28;20453;-72
2022/07/06 11:41:21;;;;;;;2.28;2.08;;;28.60;88.30;;;;;;5074300;28;20028;-76
2022/07/06 11:43:50;;;;;;;3.65;2.10;;;28.40;91.30;;;;;;5072554;28;20032;-76
2022/07/06 11:46:20;;;;;;;3.22;2.08;;;28.20;86.70;;;;;;5074266;28;20024;-75
2022/07/06 11:48:51;;;;;;;5.68;2.40;;;28.40;90.90;;;;;;5073830;28;20020;-76
2022/07/06 11:51:17;;;;;;;3.03;2.47;;;28.50;89.30;;;;;;5074335;28;20487;-76
2022/07/06 11:53:48;;;;;;;2.13;1.90;;;28.40;90.90;;;;;;5073557;28;20059;-74
2022/07/06 11:56:16;;;;;;;3.75;2.10;;;28.40;90.10;;;;;;5074181;28;20107;-75
2022/07/06 11:58:43;;;;;;;2.40;2.10;;;28.60;91.80;;;;;;5074189;28;20387;-76
2022/07/06 12:01:11;;;;;;;5.05;2.20;;;28.80;91.80;;;;;;5073984;28;20111;-77
2022/07/06 12:03:37;;;;;;;3.05;2.38;;;29.00;92.40;;;;;;5073879;28;20375;-76
2022/07/06 12:06:05;;;;;;;2.20;2.00;;;29.00;91.00;;;;;;5070478;28;20024;-76
2022/07/06 12:08:31;;;;;;;4.03;2.20;;;28.90;90.90;;;;;;5066916;28;20021;-76
2022/07/06 12:10:57;;;;;;;2.63;1.92;;;28.60;90.80;;;;;;5070671;28;20055;-76
2022/07/06 12:13:24;;;;;;;7.10;1.98;;;28.40;91.30;;;;;;5072540;28;20059;-75
2022/07/06 12:15:50;;;;;;;4.88;2.42;;;28.20;85.30;;;;;;5072990;28;20131;-73
2022/07/06 12:18:16;;;;;;;2.47;2.28;;;28.10;86.40;;;;;;5072907;28;20027;-73
2022/07/06 12:20:43;;;;;;;4.18;2.10;;;28.50;83.40;;;;;;5072643;28;20029;-76
2022/07/06 12:23:09;;;;;;;5.13;2.03;;;28.50;88.70;;;;;;5073272;28;20161;-67
2022/07/06 12:25:36;;;;;;;3.22;2.08;;;28.60;85.40;;;;;;5073145;28;20115;-75
2022/07/06 12:28:03;;;;;;;2.67;1.90;;;28.50;86.10;;;;;;5073392;28;20036;-76
2022/07/06 12:30:29;;;;;;;4.80;2.42;;;28.70;87.80;;;;;;5072818;28;20024;-75
2022/07/06 12:33:12;;;;;;;3.85;2.25;;;28.90;88.10;;;;;;5072709;28;20024;-76
2022/07/06 12:35:39;;;;;;;3.17;2.28;;;28.90;89.70;;;;;;5072790;28;20475;-74
2022/07/06 12:38:05;;;;;;;4.35;2.10;;;29.20;90.20;;;;;;5073108;28;20012;-76
2022/07/06 12:40:32;;;;;;;2.20;1.80;;;29.20;91.20;;;;;;5071917;28;20047;-77
2022/07/06 12:42:57;;;;;;;2.92;2.00;;;29.20;90.90;;;;;;5072493;28;20031;-77
2022/07/06 12:45:27;;;;;;;2.53;2.20;;;29.20;87.00;;;;;;5073063;28;20020;-76
2022/07/06 12:47:57;;;;;;;2.30;1.88;;;29.20;90.20;;;;;;5072485;28;20032;-74
2022/07/06 12:50:34;;;;;;;3.63;2.25;;;29.10;89.80;;;;;;5072948;28;20020;-76
2022/07/06 12:53:00;;;;;;;3.28;2.03;;;28.90;86.90;;;;;;5072745;28;20038;-77
2022/07/06 12:55:28;;;;;;;5.55;2.33;;;28.70;90.30;;;;;;5072988;28;20029;-76